createdAt,value
2022-10-31T00:00:33.352Z,25.60
2022-10-31T00:01:25.599Z,25.61
2022-10-31T00:02:15.752Z,25.58
2022-10-31T00:03:05.390Z,25.58
2022-10-31T00:03:54.610Z,25.57
2022-10-31T00:04:50.852Z,25.60
2022-10-31T00:05:41.519Z,25.58
2022-10-31T00:06:31.886Z,25.54
2022-10-31T00:07:24.449Z,25.60
2022-10-31T00:08:15.866Z,25.58
2022-10-31T00:09:07.977Z,25.58
2022-10-31T00:10:06.702Z,25.62
2022-10-31T00:10:57.509Z,25.61
2022-10-31T00:11:47.205Z,25.62
2022-10-31T00:12:38.006Z,25.63
2022-10-31T00:13:28.725Z,25.69
2022-10-31T00:14:19.594Z,25.73
2022-10-31T00:15:16.334Z,25.74
2022-10-31T00:16:07.290Z,25.71
2022-10-31T00:16:57.465Z,25.76
2022-10-31T00:17:48.163Z,25.77
2022-10-31T00:18:39.952Z,25.76
2022-10-31T00:19:32.177Z,25.70
2022-10-31T00:20:26.417Z,25.72
2022-10-31T00:21:16.865Z,25.74
2022-10-31T00:22:07.158Z,25.71
2022-10-31T00:22:58.234Z,25.75
2022-10-31T00:23:48.258Z,25.74
2022-10-31T00:24:44.578Z,25.75
2022-10-31T00:26:51.564Z,25.72
2022-10-31T00:27:42.338Z,25.65
2022-10-31T00:28:31.999Z,25.68
2022-10-31T00:29:22.707Z,25.74
2022-10-31T00:30:11.460Z,25.75
2022-10-31T00:31:05.401Z,25.80
2022-10-31T00:31:55.312Z,25.77
2022-10-31T00:32:44.670Z,25.78
2022-10-31T00:33:34.764Z,25.75
2022-10-31T00:34:23.646Z,25.70
2022-10-31T00:35:13.999Z,25.79
2022-10-31T00:36:08.262Z,25.75
2022-10-31T00:36:58.603Z,25.70
2022-10-31T00:37:49.667Z,25.71
2022-10-31T00:38:40.927Z,25.64
2022-10-31T00:39:33.419Z,25.69
2022-10-31T00:40:24.600Z,25.69
2022-10-31T00:41:15.022Z,25.65
2022-10-31T00:42:05.916Z,25.49
2022-10-31T00:42:55.052Z,25.61
2022-10-31T00:43:46.378Z,25.62
2022-10-31T00:44:41.649Z,25.65
2022-10-31T00:45:37.944Z,25.63
2022-10-31T00:46:47.514Z,25.62
2022-10-31T00:47:38.010Z,25.64
2022-10-31T00:48:28.047Z,25.65
2022-10-31T00:49:19.986Z,25.64
2022-10-31T00:50:08.723Z,25.63
2022-10-31T00:50:58.270Z,25.59
2022-10-31T00:51:47.812Z,25.60
2022-10-31T00:52:36.485Z,25.62
2022-10-31T00:53:27.045Z,25.65
2022-10-31T00:54:19.581Z,25.60
2022-10-31T00:55:08.678Z,25.62
2022-10-31T00:55:58.773Z,25.62
2022-10-31T00:56:48.658Z,25.61
2022-10-31T00:58:45.114Z,25.61
2022-10-31T00:59:38.407Z,25.55
2022-10-31T01:00:28.375Z,25.57
2022-10-31T01:01:16.562Z,25.53
2022-10-31T01:02:07.193Z,25.46
2022-10-31T01:02:57.705Z,25.43
2022-10-31T01:03:46.864Z,25.40
2022-10-31T01:04:42.011Z,25.42
2022-10-31T01:05:33.882Z,25.47
2022-10-31T01:06:22.854Z,25.43
2022-10-31T01:07:11.651Z,25.43
2022-10-31T01:07:59.430Z,25.49
2022-10-31T01:08:51.814Z,25.50
2022-10-31T01:09:46.978Z,25.43
2022-10-31T01:10:36.332Z,25.45
2022-10-31T01:11:27.974Z,25.46
2022-10-31T01:12:17.377Z,25.50
2022-10-31T01:13:06.391Z,25.48
2022-10-31T01:13:56.295Z,25.47
2022-10-31T01:14:49.604Z,25.48
2022-10-31T01:15:42.748Z,25.48
2022-10-31T01:16:33.920Z,25.37
2022-10-31T01:17:23.498Z,25.39
2022-10-31T01:18:14.833Z,25.37
2022-10-31T01:19:04.321Z,25.35
2022-10-31T01:19:58.989Z,25.41
2022-10-31T01:20:49.464Z,25.39
2022-10-31T01:21:39.637Z,25.43
2022-10-31T01:22:29.734Z,25.39
2022-10-31T01:23:20.086Z,25.38
2022-10-31T01:24:10.043Z,25.39
2022-10-31T01:25:03.992Z,25.41
2022-10-31T01:25:56.647Z,25.44
2022-10-31T01:26:49.032Z,25.42
2022-10-31T01:27:39.179Z,25.37
2022-10-31T01:28:29.627Z,25.37
2022-10-31T01:29:17.592Z,25.35
2022-10-31T01:30:10.620Z,25.32
2022-10-31T01:30:59.675Z,25.33
2022-10-31T01:31:59.067Z,25.36
2022-10-31T01:32:51.131Z,25.35
2022-10-31T01:33:45.370Z,25.35
2022-10-31T01:34:36.309Z,25.28
2022-10-31T01:35:37.433Z,25.33
2022-10-31T01:36:29.328Z,25.32
2022-10-31T01:37:20.959Z,25.30
2022-10-31T01:38:15.639Z,25.28
2022-10-31T01:39:08.825Z,25.32
2022-10-31T01:40:05.584Z,25.31
2022-10-31T01:40:56.478Z,25.26
2022-10-31T01:41:45.759Z,25.31
2022-10-31T01:42:35.079Z,25.30
2022-10-31T01:43:25.497Z,25.29
2022-10-31T01:44:32.623Z,25.29
2022-10-31T01:46:29.191Z,25.27
2022-10-31T01:47:24.329Z,25.33
2022-10-31T01:48:16.921Z,25.29
2022-10-31T01:49:10.453Z,25.22
2022-10-31T01:50:14.030Z,25.20
2022-10-31T01:51:10.893Z,25.19
2022-10-31T01:52:00.986Z,25.26
2022-10-31T01:52:43.227Z,25.31
2022-10-31T01:53:35.624Z,25.32
2022-10-31T01:54:28.906Z,25.32
2022-10-31T01:55:29.957Z,25.31
2022-10-31T01:56:20.108Z,25.33
2022-10-31T01:57:11.553Z,25.31
2022-10-31T01:58:03.853Z,25.31
2022-10-31T01:58:56.165Z,25.27
2022-10-31T01:59:47.980Z,25.28
2022-10-31T02:00:47.072Z,25.29
2022-10-31T02:01:41.111Z,25.27
2022-10-31T02:02:33.930Z,25.26
2022-10-31T02:03:27.275Z,25.27
2022-10-31T02:04:20.201Z,25.28
2022-10-31T02:05:11.529Z,25.27
2022-10-31T02:07:10.498Z,25.29
2022-10-31T02:08:06.963Z,25.28
2022-10-31T02:08:58.443Z,25.26
2022-10-31T02:09:51.071Z,25.27
2022-10-31T02:10:47.674Z,25.26
2022-10-31T02:11:44.650Z,25.28
2022-10-31T02:12:37.398Z,25.26
2022-10-31T02:13:31.023Z,25.25
2022-10-31T02:14:24.563Z,25.24
2022-10-31T02:15:18.369Z,25.24
2022-10-31T02:16:09.760Z,25.23
2022-10-31T02:18:06.760Z,25.24
2022-10-31T02:18:59.267Z,25.28
2022-10-31T02:19:51.226Z,25.25
2022-10-31T02:20:42.291Z,25.26
2022-10-31T02:21:49.486Z,25.22
2022-10-31T02:22:43.206Z,25.28
2022-10-31T02:23:50.426Z,25.26
2022-10-31T02:24:31.765Z,25.25
2022-10-31T02:25:29.827Z,25.25
2022-10-31T02:26:11.949Z,25.26
2022-10-31T02:27:36.463Z,25.24
2022-10-31T02:28:41.599Z,25.27
2022-10-31T02:29:46.980Z,25.27
2022-10-31T02:30:40.919Z,25.17
2022-10-31T02:31:21.866Z,25.12
2022-10-31T02:32:16.739Z,25.13
2022-10-31T02:33:11.493Z,25.18
2022-10-31T02:34:06.784Z,25.24
2022-10-31T02:34:51.929Z,25.22
2022-10-31T02:35:34.245Z,25.21
2022-10-31T02:36:36.489Z,25.19
2022-10-31T02:37:32.191Z,25.20
2022-10-31T02:38:16.956Z,25.25
2022-10-31T02:39:17.344Z,25.27
2022-10-31T02:40:12.657Z,25.27
2022-10-31T02:41:15.850Z,25.27
2022-10-31T02:42:14.197Z,25.24
2022-10-31T02:44:10.212Z,25.20
2022-10-31T02:45:04.716Z,25.18
2022-10-31T02:45:56.588Z,25.17
2022-10-31T02:47:06.659Z,25.21
2022-10-31T02:48:08.760Z,25.17
2022-10-31T02:49:03.988Z,25.17
2022-10-31T02:49:49.354Z,25.16
2022-10-31T02:51:43.457Z,25.15
2022-10-31T02:52:42.217Z,25.14
2022-10-31T02:53:37.838Z,25.14
2022-10-31T02:54:30.672Z,25.18
2022-10-31T02:55:39.822Z,25.18
2022-10-31T02:56:31.716Z,25.12
2022-10-31T02:57:21.185Z,25.15
2022-10-31T02:58:14.231Z,25.13
2022-10-31T02:59:09.528Z,25.13
2022-10-31T03:00:03.582Z,25.10
2022-10-31T03:01:01.709Z,25.10
2022-10-31T03:02:07.238Z,25.11
2022-10-31T03:03:02.591Z,25.17
2022-10-31T03:04:03.114Z,25.08
2022-10-31T03:05:07.057Z,25.09
2022-10-31T03:05:52.200Z,25.09
2022-10-31T03:06:50.074Z,25.08
2022-10-31T03:07:34.270Z,25.14
2022-10-31T03:08:38.510Z,25.15
2022-10-31T03:09:44.902Z,25.07
2022-10-31T03:10:39.315Z,25.10
2022-10-31T03:11:33.437Z,25.09
2022-10-31T03:12:43.183Z,25.03
2022-10-31T03:13:27.567Z,25.11
2022-10-31T03:14:21.554Z,25.14
2022-10-31T03:15:13.144Z,25.12
2022-10-31T03:16:06.397Z,25.15
2022-10-31T03:17:15.491Z,25.15
2022-10-31T03:17:56.826Z,25.09
2022-10-31T03:18:50.553Z,25.11
2022-10-31T03:19:41.449Z,25.16
2022-10-31T03:20:33.360Z,25.17
2022-10-31T03:21:30.123Z,25.16
2022-10-31T03:22:29.130Z,25.16
2022-10-31T03:23:22.950Z,25.15
2022-10-31T03:24:16.028Z,25.16
2022-10-31T03:25:08.605Z,25.17
2022-10-31T03:26:01.454Z,25.16
2022-10-31T03:26:53.339Z,25.16
2022-10-31T03:27:52.048Z,25.14
2022-10-31T03:28:42.519Z,25.15
2022-10-31T03:29:32.277Z,25.17
2022-10-31T03:30:23.529Z,25.14
2022-10-31T03:31:17.152Z,25.13
2022-10-31T03:32:09.773Z,25.14
2022-10-31T03:33:03.502Z,25.16
2022-10-31T03:33:54.036Z,25.14
2022-10-31T03:34:47.988Z,25.11
2022-10-31T03:35:40.949Z,25.13
2022-10-31T03:36:34.690Z,25.15
2022-10-31T03:37:33.498Z,25.08
2022-10-31T03:38:25.559Z,25.13
2022-10-31T03:39:17.769Z,25.15
2022-10-31T03:40:09.467Z,25.12
2022-10-31T03:41:02.295Z,25.10
2022-10-31T03:41:52.927Z,25.08
2022-10-31T03:42:50.622Z,25.06
2022-10-31T03:43:41.278Z,25.10
2022-10-31T03:44:31.228Z,25.06
2022-10-31T03:45:13.932Z,25.00
2022-10-31T03:46:05.899Z,25.06
2022-10-31T03:46:58.921Z,25.10
2022-10-31T03:47:58.709Z,25.09
2022-10-31T03:48:50.946Z,25.08
2022-10-31T03:49:44.196Z,25.10
2022-10-31T03:50:36.638Z,25.06
2022-10-31T03:51:31.708Z,25.04
2022-10-31T03:52:43.804Z,25.02
2022-10-31T03:53:56.835Z,25.09
2022-10-31T03:54:57.107Z,25.12
2022-10-31T03:55:57.944Z,25.09
2022-10-31T03:56:46.879Z,25.09
2022-10-31T03:57:40.485Z,25.08
2022-10-31T03:58:42.176Z,25.09
2022-10-31T03:59:32.793Z,25.11
2022-10-31T04:00:24.738Z,25.04
2022-10-31T04:01:18.477Z,25.07
2022-10-31T04:02:10.062Z,25.06
2022-10-31T04:03:05.407Z,25.06
2022-10-31T04:03:56.527Z,25.04
2022-10-31T04:04:47.275Z,25.02
2022-10-31T04:05:38.359Z,25.05
2022-10-31T04:06:29.975Z,25.07
2022-10-31T04:07:21.266Z,25.09
2022-10-31T04:08:19.963Z,25.11
2022-10-31T04:09:09.443Z,25.13
2022-10-31T04:09:59.191Z,25.14
2022-10-31T04:10:49.684Z,25.13
2022-10-31T04:11:39.971Z,25.13
2022-10-31T04:12:36.041Z,25.09
2022-10-31T04:13:25.830Z,25.13
2022-10-31T04:14:16.286Z,25.12
2022-10-31T04:15:09.909Z,25.12
2022-10-31T04:16:01.220Z,25.10
2022-10-31T04:16:57.807Z,25.10
2022-10-31T04:18:52.647Z,25.09
2022-10-31T04:19:45.286Z,25.09
2022-10-31T04:20:38.868Z,25.09
2022-10-31T04:21:31.177Z,25.06
2022-10-31T04:22:24.942Z,25.08
2022-10-31T04:23:25.481Z,25.09
2022-10-31T04:24:18.062Z,25.10
2022-10-31T04:25:11.510Z,25.10
2022-10-31T04:26:05.220Z,25.12
2022-10-31T04:26:58.768Z,25.12
2022-10-31T04:27:57.245Z,25.12
2022-10-31T04:28:52.854Z,25.11
2022-10-31T04:29:48.200Z,25.12
2022-10-31T04:30:41.933Z,25.11
2022-10-31T04:31:34.197Z,25.10
2022-10-31T04:32:26.423Z,25.11
2022-10-31T04:33:20.362Z,25.12
2022-10-31T04:34:17.267Z,25.12
2022-10-31T04:35:09.477Z,25.10
2022-10-31T04:36:02.072Z,25.09
2022-10-31T04:36:54.928Z,25.10
2022-10-31T04:37:48.216Z,25.12
2022-10-31T04:38:44.221Z,25.06
2022-10-31T04:39:37.276Z,25.09
2022-10-31T04:40:30.651Z,25.07
2022-10-31T04:41:23.043Z,25.09
2022-10-31T04:42:15.275Z,25.09
2022-10-31T04:43:08.947Z,25.01
2022-10-31T04:45:04.483Z,25.07
2022-10-31T04:45:57.292Z,25.10
2022-10-31T04:46:49.614Z,25.08
2022-10-31T04:47:43.824Z,25.11
2022-10-31T04:48:36.211Z,25.09
2022-10-31T04:49:30.945Z,25.10
2022-10-31T04:50:21.682Z,25.13
2022-10-31T04:51:12.657Z,25.11
2022-10-31T04:52:05.063Z,25.09
2022-10-31T04:53:00.429Z,25.08
2022-10-31T04:53:54.988Z,25.08
2022-10-31T04:54:51.635Z,25.06
2022-10-31T04:55:42.074Z,25.06
2022-10-31T04:56:33.689Z,25.06
2022-10-31T04:57:26.123Z,24.96
2022-10-31T04:58:18.669Z,24.94
2022-10-31T04:59:11.412Z,25.00
2022-10-31T05:01:02.858Z,24.98
2022-10-31T05:01:56.178Z,25.01
2022-10-31T05:02:47.984Z,25.00
2022-10-31T05:03:45.709Z,25.04
2022-10-31T05:04:39.373Z,25.01
2022-10-31T05:05:37.232Z,25.00
2022-10-31T05:06:31.308Z,25.06
2022-10-31T05:07:23.575Z,25.07
2022-10-31T05:08:17.381Z,25.07
2022-10-31T05:09:09.461Z,25.04
2022-10-31T05:10:01.835Z,25.08
2022-10-31T05:11:57.941Z,25.09
2022-10-31T05:12:50.607Z,25.10
2022-10-31T05:13:47.416Z,25.10
2022-10-31T05:14:38.362Z,25.06
2022-10-31T05:15:30.466Z,25.02
2022-10-31T05:16:19.392Z,25.08
2022-10-31T05:17:08.926Z,25.07
2022-10-31T05:18:00.181Z,25.05
2022-10-31T05:18:57.549Z,25.03
2022-10-31T05:19:49.547Z,25.04
2022-10-31T05:20:42.148Z,25.01
2022-10-31T05:21:33.306Z,25.06
2022-10-31T05:22:24.377Z,25.05
2022-10-31T05:23:16.353Z,25.02
2022-10-31T05:24:12.866Z,25.03
2022-10-31T05:25:03.566Z,25.07
2022-10-31T05:25:53.907Z,25.07
2022-10-31T05:26:45.970Z,25.07
2022-10-31T05:27:38.679Z,25.09
2022-10-31T05:28:29.993Z,25.07
2022-10-31T05:30:25.152Z,25.09
2022-10-31T05:31:17.127Z,25.04
2022-10-31T05:32:06.981Z,25.05
2022-10-31T05:32:56.884Z,25.04
2022-10-31T05:33:52.147Z,25.04
2022-10-31T05:34:47.109Z,25.02
2022-10-31T05:35:39.517Z,25.10
2022-10-31T05:36:33.721Z,25.07
2022-10-31T05:37:27.160Z,25.02
2022-10-31T05:38:19.824Z,25.04
2022-10-31T05:39:12.520Z,25.07
2022-10-31T05:40:08.583Z,25.03
2022-10-31T05:41:00.279Z,25.07
2022-10-31T05:41:52.716Z,25.06
2022-10-31T05:42:46.319Z,25.01
2022-10-31T05:43:42.253Z,24.94
2022-10-31T05:44:35.022Z,24.97
2022-10-31T05:45:24.296Z,24.96
2022-10-31T05:46:15.383Z,25.02
2022-10-31T05:47:09.485Z,25.03
2022-10-31T05:47:59.831Z,25.04
2022-10-31T05:48:57.522Z,25.07
2022-10-31T05:49:56.237Z,25.08
2022-10-31T05:50:50.889Z,25.04
2022-10-31T05:51:45.479Z,25.08
2022-10-31T05:52:37.770Z,25.08
2022-10-31T05:53:32.398Z,25.03
2022-10-31T05:54:24.888Z,25.06
2022-10-31T05:55:17.774Z,25.03
2022-10-31T05:56:11.440Z,24.99
2022-10-31T05:57:04.926Z,25.02
2022-10-31T05:57:57.978Z,24.99
2022-10-31T05:59:54.924Z,25.04
2022-10-31T06:00:47.711Z,25.06
2022-10-31T06:01:42.245Z,25.01
2022-10-31T06:02:35.663Z,25.04
2022-10-31T06:03:29.990Z,25.04
2022-10-31T06:04:22.307Z,25.06
2022-10-31T06:05:14.035Z,25.04
2022-10-31T06:06:07.227Z,25.08
2022-10-31T06:06:58.720Z,25.02
2022-10-31T06:07:53.212Z,25.07
2022-10-31T06:09:49.308Z,25.01
2022-10-31T06:10:41.203Z,24.98
2022-10-31T06:11:35.063Z,24.96
2022-10-31T06:12:27.663Z,25.02
2022-10-31T06:13:22.982Z,25.04
2022-10-31T06:14:15.040Z,25.03
2022-10-31T06:15:09.198Z,25.04
2022-10-31T06:16:02.447Z,25.03
2022-10-31T06:16:55.896Z,25.04
2022-10-31T06:17:49.343Z,25.04
2022-10-31T06:19:46.625Z,25.04
2022-10-31T06:20:38.952Z,25.05
2022-10-31T06:21:33.186Z,25.01
2022-10-31T06:22:25.917Z,25.02
2022-10-31T06:23:20.844Z,25.01
2022-10-31T06:24:13.668Z,24.98
2022-10-31T06:25:06.498Z,25.02
2022-10-31T06:25:57.784Z,24.98
2022-10-31T06:26:51.476Z,25.01
2022-10-31T06:27:46.436Z,24.97
2022-10-31T06:28:39.586Z,24.98
2022-10-31T06:29:32.183Z,25.03
2022-10-31T06:30:21.812Z,25.03
2022-10-31T06:31:12.204Z,25.02
2022-10-31T06:32:06.447Z,25.04
2022-10-31T06:33:03.378Z,25.07
2022-10-31T06:33:57.388Z,25.02
2022-10-31T06:34:47.146Z,25.03
2022-10-31T06:35:37.401Z,25.02
2022-10-31T06:37:18.369Z,25.06
2022-10-31T06:38:11.346Z,25.03
2022-10-31T06:39:00.716Z,25.04
2022-10-31T06:39:50.861Z,25.02
2022-10-31T06:40:40.699Z,25.02
2022-10-31T06:41:30.803Z,25.03
2022-10-31T06:42:21.644Z,25.04
2022-10-31T06:43:17.434Z,24.96
2022-10-31T06:44:09.866Z,24.99
2022-10-31T06:45:00.130Z,25.03
2022-10-31T06:45:50.622Z,25.02
2022-10-31T06:46:41.837Z,24.97
2022-10-31T06:47:32.409Z,24.99
2022-10-31T06:48:27.112Z,25.03
2022-10-31T06:49:17.223Z,25.01
2022-10-31T06:50:07.682Z,25.06
2022-10-31T06:51:02.003Z,25.02
2022-10-31T06:51:53.627Z,25.03
2022-10-31T06:52:44.150Z,25.05
2022-10-31T06:53:39.537Z,25.04
2022-10-31T06:54:29.061Z,25.07
2022-10-31T06:55:19.665Z,25.05
2022-10-31T06:56:08.460Z,25.08
2022-10-31T06:56:58.687Z,25.06
2022-10-31T06:57:49.442Z,25.02
2022-10-31T06:58:44.936Z,25.02
2022-10-31T06:59:37.964Z,25.04
2022-10-31T07:00:27.449Z,25.06
2022-10-31T07:01:16.420Z,25.04
2022-10-31T07:02:07.192Z,25.03
2022-10-31T07:02:56.686Z,25.05
2022-10-31T07:03:51.225Z,25.03
2022-10-31T07:04:41.382Z,25.02
2022-10-31T07:05:30.706Z,25.04
2022-10-31T07:06:19.980Z,25.07
2022-10-31T07:07:10.210Z,25.07
2022-10-31T07:08:01.007Z,25.07
2022-10-31T07:08:56.216Z,25.02
2022-10-31T07:09:46.145Z,25.02
2022-10-31T07:10:40.150Z,25.02
2022-10-31T07:11:28.001Z,25.01
2022-10-31T07:12:18.310Z,25.01
2022-10-31T07:13:12.321Z,25.02
2022-10-31T07:14:02.167Z,25.02
2022-10-31T07:14:52.120Z,25.05
2022-10-31T07:15:40.731Z,25.04
2022-10-31T07:16:29.828Z,25.04
2022-10-31T07:17:19.476Z,25.04
2022-10-31T07:18:18.782Z,25.04
2022-10-31T07:19:08.990Z,25.01
2022-10-31T07:19:59.553Z,25.01
2022-10-31T07:20:50.323Z,25.02
2022-10-31T07:21:40.543Z,25.03
2022-10-31T07:22:30.308Z,24.98
2022-10-31T07:23:25.916Z,24.99
2022-10-31T07:24:15.432Z,24.98
2022-10-31T07:25:05.254Z,25.03
2022-10-31T07:25:56.233Z,24.99
2022-10-31T07:26:45.862Z,25.00
2022-10-31T07:27:37.608Z,24.96
2022-10-31T07:28:34.824Z,25.02
2022-10-31T07:29:24.168Z,25.03
2022-10-31T07:31:02.149Z,24.94
2022-10-31T07:31:55.600Z,24.98
2022-10-31T07:32:53.688Z,24.97
2022-10-31T07:33:48.647Z,24.94
2022-10-31T07:34:36.930Z,24.98
2022-10-31T07:35:28.485Z,24.96
2022-10-31T07:36:20.458Z,24.92
2022-10-31T07:37:12.458Z,24.95
2022-10-31T07:38:04.904Z,24.95
2022-10-31T07:39:04.594Z,24.94
2022-10-31T07:39:57.710Z,25.00
2022-10-31T07:40:50.070Z,25.01
2022-10-31T07:41:43.589Z,25.01
2022-10-31T07:42:36.692Z,25.00
2022-10-31T07:43:33.112Z,25.00
2022-10-31T07:44:27.823Z,24.98
2022-10-31T07:45:19.094Z,25.04
2022-10-31T07:46:12.601Z,25.03
2022-10-31T07:47:06.272Z,25.04
2022-10-31T07:47:59.364Z,25.02
2022-10-31T07:48:51.742Z,24.94
2022-10-31T07:49:50.812Z,24.98
2022-10-31T07:50:43.267Z,25.00
2022-10-31T07:51:35.926Z,25.01
2022-10-31T07:52:27.708Z,25.03
2022-10-31T07:53:08.864Z,25.04
2022-10-31T07:53:58.149Z,25.00
2022-10-31T07:54:55.851Z,25.02
2022-10-31T07:55:48.092Z,24.99
2022-10-31T07:56:40.318Z,25.00
2022-10-31T07:57:34.445Z,25.02
2022-10-31T07:58:26.862Z,25.04
2022-10-31T07:59:17.559Z,24.99
2022-10-31T08:02:08.625Z,24.96
2022-10-31T08:02:58.795Z,24.98
2022-10-31T08:03:51.102Z,25.02
2022-10-31T08:04:44.888Z,25.01
2022-10-31T08:05:35.155Z,24.99
2022-10-31T08:06:26.210Z,25.03
2022-10-31T08:07:16.620Z,25.03
2022-10-31T08:08:08.622Z,25.02
2022-10-31T08:09:06.409Z,25.04
2022-10-31T08:09:57.886Z,24.99
2022-10-31T08:10:46.702Z,25.02
2022-10-31T08:11:35.645Z,25.04
2022-10-31T08:12:27.796Z,25.07
2022-10-31T08:13:18.768Z,25.02
2022-10-31T08:14:18.190Z,25.02
2022-10-31T08:15:10.266Z,24.99
2022-10-31T08:16:03.162Z,25.03
2022-10-31T08:16:55.418Z,24.97
2022-10-31T08:17:48.346Z,25.00
2022-10-31T08:18:45.918Z,25.01
2022-10-31T08:19:39.493Z,25.02
2022-10-31T08:20:33.958Z,25.03
2022-10-31T08:21:28.195Z,25.02
2022-10-31T08:22:21.544Z,24.97
2022-10-31T08:23:16.456Z,24.98
2022-10-31T08:25:13.239Z,24.94
2022-10-31T08:26:05.583Z,24.89
2022-10-31T08:26:59.395Z,24.92
2022-10-31T08:27:54.058Z,24.95
2022-10-31T08:28:51.170Z,24.97
2022-10-31T08:29:48.334Z,24.97
2022-10-31T08:31:37.727Z,24.94
2022-10-31T08:32:28.276Z,24.97
2022-10-31T08:33:19.266Z,24.96
2022-10-31T08:34:10.287Z,24.99
2022-10-31T08:35:00.143Z,24.97
2022-10-31T08:35:50.051Z,24.94
2022-10-31T08:36:39.124Z,24.96
2022-10-31T08:37:28.896Z,25.00
2022-10-31T08:38:28.579Z,24.99
2022-10-31T08:39:19.674Z,24.99
2022-10-31T08:40:08.340Z,24.97
2022-10-31T08:41:02.132Z,24.99
2022-10-31T08:41:55.181Z,24.94
2022-10-31T08:42:44.975Z,24.99
2022-10-31T08:43:44.050Z,24.99
2022-10-31T08:44:35.948Z,24.96
2022-10-31T08:45:29.551Z,24.91
2022-10-31T08:46:24.492Z,24.87
2022-10-31T08:47:14.817Z,24.93
2022-10-31T08:48:07.861Z,24.94
2022-10-31T08:49:03.785Z,24.96
2022-10-31T08:49:57.209Z,24.94
2022-10-31T08:50:50.929Z,24.92
2022-10-31T08:51:44.032Z,24.95
2022-10-31T08:52:59.234Z,24.92
2022-10-31T08:53:44.493Z,24.97
2022-10-31T08:54:43.476Z,24.94
2022-10-31T08:55:35.066Z,24.90
2022-10-31T08:56:28.576Z,24.95
2022-10-31T08:57:20.024Z,25.01
2022-10-31T08:58:14.334Z,25.01
2022-10-31T08:59:09.607Z,25.01
2022-10-31T09:00:03.029Z,24.97
2022-10-31T09:00:57.363Z,24.95
2022-10-31T09:01:51.142Z,24.94
2022-10-31T09:02:44.800Z,24.87
2022-10-31T09:03:35.858Z,24.82
2022-10-31T09:04:32.664Z,24.87
2022-10-31T09:05:24.099Z,24.82
2022-10-31T09:06:18.231Z,24.83
2022-10-31T09:07:26.345Z,24.83
2022-10-31T09:08:18.655Z,24.85
2022-10-31T09:09:08.986Z,24.83
2022-10-31T09:10:05.113Z,24.85
2022-10-31T09:10:56.718Z,24.86
2022-10-31T09:11:47.199Z,24.83
2022-10-31T09:12:37.789Z,24.89
2022-10-31T09:13:28.640Z,24.90
2022-10-31T09:14:21.883Z,24.84
2022-10-31T09:15:20.738Z,24.89
2022-10-31T09:16:13.566Z,24.90
2022-10-31T09:17:06.002Z,24.88
2022-10-31T09:17:58.741Z,24.90
2022-10-31T09:18:50.338Z,24.89
2022-10-31T09:19:45.657Z,24.89
2022-10-31T09:20:39.038Z,24.89
2022-10-31T09:21:32.286Z,24.88
2022-10-31T09:22:23.790Z,24.90
2022-10-31T09:23:20.104Z,24.89
2022-10-31T09:24:12.924Z,24.92
2022-10-31T09:25:10.796Z,24.94
2022-10-31T09:26:04.328Z,24.92
2022-10-31T09:26:56.769Z,24.92
2022-10-31T09:27:51.267Z,24.90
2022-10-31T09:28:48.433Z,24.94
2022-10-31T09:29:39.832Z,24.92
2022-10-31T09:30:36.187Z,24.94
2022-10-31T09:31:29.329Z,24.94
2022-10-31T09:32:21.986Z,24.94
2022-10-31T09:33:14.356Z,24.91
2022-10-31T09:34:08.415Z,24.91
2022-10-31T09:35:02.298Z,24.90
2022-10-31T09:35:59.679Z,24.94
2022-10-31T09:36:49.913Z,24.93
2022-10-31T09:37:41.870Z,24.95
2022-10-31T09:38:33.193Z,24.96
2022-10-31T09:39:24.275Z,24.97
2022-10-31T09:40:57.395Z,24.94
2022-10-31T09:42:08.978Z,24.95
2022-10-31T09:42:57.041Z,24.95
2022-10-31T09:43:59.465Z,24.95
2022-10-31T09:44:59.136Z,24.93
2022-10-31T09:45:52.590Z,24.94
2022-10-31T09:46:50.574Z,24.93
2022-10-31T09:47:47.094Z,24.93
2022-10-31T09:48:48.318Z,24.92
2022-10-31T09:49:31.556Z,24.95
2022-10-31T09:50:38.003Z,24.97
2022-10-31T09:51:30.652Z,24.96
2022-10-31T09:52:23.241Z,24.91
2022-10-31T09:53:14.191Z,24.90
2022-10-31T09:54:07.053Z,24.90
2022-10-31T09:55:01.362Z,24.93
2022-10-31T09:55:53.812Z,24.94
2022-10-31T09:56:43.419Z,24.92
2022-10-31T09:57:35.960Z,24.91
2022-10-31T09:58:38.156Z,24.91
2022-10-31T09:59:30.407Z,24.96
2022-10-31T10:00:20.728Z,24.92
2022-10-31T10:01:11.711Z,24.91
2022-10-31T10:02:12.020Z,24.95
2022-10-31T10:03:02.817Z,24.96
2022-10-31T10:03:59.152Z,24.95
2022-10-31T10:04:49.923Z,24.96
2022-10-31T10:05:46.244Z,24.93
2022-10-31T10:06:36.322Z,24.95
2022-10-31T10:07:39.644Z,24.97
2022-10-31T10:08:39.276Z,24.93
2022-10-31T10:09:32.388Z,24.91
2022-10-31T10:10:21.069Z,24.95
2022-10-31T10:11:25.966Z,24.95
2022-10-31T10:12:11.417Z,24.96
2022-10-31T10:12:56.523Z,24.97
2022-10-31T10:14:04.161Z,24.97
2022-10-31T10:14:46.516Z,24.96
2022-10-31T10:15:38.245Z,24.90
2022-10-31T10:16:33.475Z,24.93
2022-10-31T10:17:27.867Z,24.89
2022-10-31T10:18:12.222Z,24.92
2022-10-31T10:19:03.589Z,24.89
2022-10-31T10:20:11.656Z,24.89
2022-10-31T10:20:54.039Z,24.93
2022-10-31T10:21:35.830Z,24.95
2022-10-31T10:22:19.834Z,24.94
2022-10-31T10:23:20.363Z,24.91
2022-10-31T10:24:12.446Z,24.96
2022-10-31T10:25:13.948Z,24.93
2022-10-31T10:26:10.221Z,24.95
2022-10-31T10:27:06.606Z,24.94
2022-10-31T10:27:50.922Z,24.91
2022-10-31T10:28:41.724Z,24.91
2022-10-31T10:29:43.543Z,24.93
2022-10-31T10:30:34.098Z,24.91
2022-10-31T10:31:25.714Z,24.94
2022-10-31T10:32:19.840Z,24.93
2022-10-31T10:33:24.605Z,24.92
2022-10-31T10:34:24.761Z,24.92
2022-10-31T10:35:19.206Z,24.95
2022-10-31T10:36:10.863Z,24.97
2022-10-31T10:37:02.324Z,24.97
2022-10-31T10:37:53.020Z,24.98
2022-10-31T10:38:34.380Z,24.95
2022-10-31T10:39:26.832Z,24.95
2022-10-31T10:40:37.570Z,24.95
2022-10-31T10:41:34.323Z,24.97
2022-10-31T10:42:24.777Z,24.98
2022-10-31T10:43:10.297Z,24.97
2022-10-31T10:44:00.975Z,24.97
2022-10-31T10:45:00.988Z,24.97
2022-10-31T10:45:53.538Z,24.97
2022-10-31T10:46:57.553Z,24.98
2022-10-31T10:47:49.548Z,24.98
2022-10-31T10:48:46.331Z,24.93
2022-10-31T10:49:31.647Z,24.94
2022-10-31T10:50:34.086Z,24.95
2022-10-31T10:52:07.063Z,24.96
2022-10-31T10:52:51.252Z,24.93
2022-10-31T10:53:50.909Z,24.96
2022-10-31T10:54:51.996Z,24.98
2022-10-31T10:55:52.284Z,24.94
2022-10-31T10:56:55.525Z,24.93
2022-10-31T10:57:51.002Z,24.98
2022-10-31T10:58:43.719Z,24.98
2022-10-31T10:59:34.880Z,24.97
2022-10-31T11:00:23.210Z,24.96
2022-10-31T11:01:20.833Z,24.98
2022-10-31T11:02:14.270Z,24.99
2022-10-31T11:03:06.964Z,24.98
2022-10-31T11:04:00.170Z,24.99
2022-10-31T11:04:51.920Z,24.98
2022-10-31T11:05:40.833Z,24.99
2022-10-31T11:07:35.733Z,24.99
2022-10-31T11:08:41.690Z,24.97
2022-10-31T11:09:37.844Z,24.93
2022-10-31T11:10:29.245Z,24.97
2022-10-31T11:11:22.383Z,24.95
2022-10-31T11:12:15.009Z,24.96
2022-10-31T11:13:08.198Z,24.98
2022-10-31T11:13:59.807Z,24.98
2022-10-31T11:14:53.327Z,24.96
2022-10-31T11:15:44.699Z,24.97
2022-10-31T11:16:42.458Z,24.99
2022-10-31T11:17:34.999Z,24.99
2022-10-31T11:18:32.788Z,24.96
2022-10-31T11:19:30.036Z,24.97
2022-10-31T11:20:19.373Z,24.99
2022-10-31T11:21:09.239Z,24.98
2022-10-31T11:22:07.167Z,25.00
2022-10-31T11:22:57.454Z,24.99
2022-10-31T11:23:50.398Z,24.98
2022-10-31T11:24:49.149Z,24.97
2022-10-31T11:25:39.403Z,24.99
2022-10-31T11:26:31.903Z,25.02
2022-10-31T11:27:29.549Z,25.01
2022-10-31T11:28:21.108Z,24.99
2022-10-31T11:29:16.071Z,24.97
2022-10-31T11:30:06.069Z,24.99
2022-10-31T11:31:02.491Z,25.02
2022-10-31T11:31:53.632Z,25.02
2022-10-31T11:32:45.640Z,24.99
2022-10-31T11:33:38.292Z,24.99
2022-10-31T11:34:41.574Z,24.98
2022-10-31T11:35:32.015Z,25.01
2022-10-31T11:36:35.596Z,24.98
2022-10-31T11:37:28.014Z,25.00
2022-10-31T11:38:20.814Z,24.97
2022-10-31T11:39:13.367Z,24.95
2022-10-31T11:40:11.500Z,25.00
2022-10-31T11:41:08.105Z,24.96
2022-10-31T11:42:04.904Z,24.98
2022-10-31T11:42:59.725Z,25.02
2022-10-31T11:43:53.570Z,24.97
2022-10-31T11:44:50.071Z,24.94
2022-10-31T11:45:42.750Z,25.01
2022-10-31T11:46:32.092Z,24.99
2022-10-31T11:47:22.296Z,24.96
2022-10-31T11:48:17.724Z,24.98
2022-10-31T11:49:10.640Z,25.01
2022-10-31T11:51:06.343Z,24.97